sensor_id;sensor_type;location;lat;lon;timestamp;pressure;altitude;pressure_sealevel;temperature;humidity
17260;BME280;8746;49.230;9.220;2023-05-10T00:01:49;99248.88;;;13.35;100.00
17260;BME280;8746;49.230;9.220;2023-05-10T00:04:14;99253.16;;;13.23;100.00
17260;BME280;8746;49.230;9.220;2023-05-10T00:06:39;99249.16;;;13.30;100.00
17260;BME280;8746;49.230;9.220;2023-05-10T00:09:05;99245.22;;;13.23;100.00
17260;BME280;8746;49.230;9.220;2023-05-10T00:11:30;99248.06;;;13.20;100.00
17260;BME280;8746;49.230;9.220;2023-05-10T00:13:56;99251.28;;;13.11;100.00
17260;BME280;8746;49.230;9.220;2023-05-10T00:16:21;99251.81;;;13.16;100.00
17260;BME280;8746;49.230;9.220;2023-05-10T00:18:46;99252.03;;;13.13;100.00
17260;BME280;8746;49.230;9.220;2023-05-10T00:21:12;99244.66;;;13.18;100.00
17260;BME280;8746;49.230;9.220;2023-05-10T00:23:37;99248.44;;;13.14;100.00
17260;BME280;8746;49.230;9.220;2023-05-10T00:26:02;99246.34;;;13.19;100.00
17260;BME280;8746;49.230;9.220;2023-05-10T00:28:28;99252.41;;;13.21;100.00
17260;BME280;8746;49.230;9.220;2023-05-10T00:30:54;99253.75;;;13.14;100.00
17260;BME280;8746;49.230;9.220;2023-05-10T00:33:21;99253.34;;;13.20;100.00
17260;BME280;8746;49.230;9.220;2023-05-10T00:35:46;99255.41;;;13.15;100.00
17260;BME280;8746;49.230;9.220;2023-05-10T00:38:11;99261.59;;;13.15;100.00
17260;BME280;8746;49.230;9.220;2023-05-10T00:40:37;99259.41;;;13.08;100.00
17260;BME280;8746;49.230;9.220;2023-05-10T00:43:02;99262.34;;;13.18;100.00
17260;BME280;8746;49.230;9.220;2023-05-10T00:45:29;99259.69;;;13.18;100.00
17260;BME280;8746;49.230;9.220;2023-05-10T00:47:55;99250.03;;;13.17;100.00
17260;BME280;8746;49.230;9.220;2023-05-10T00:50:22;99257.34;;;13.13;100.00
17260;BME280;8746;49.230;9.220;2023-05-10T00:52:48;99255.81;;;13.09;100.00
17260;BME280;8746;49.230;9.220;2023-05-10T00:55:14;99249.00;;;13.05;100.00
17260;BME280;8746;49.230;9.220;2023-05-10T00:57:40;99261.09;;;13.09;100.00
17260;BME280;8746;49.230;9.220;2023-05-10T01:00:06;99260.34;;;13.07;100.00
17260;BME280;8746;49.230;9.220;2023-05-10T01:02:33;99255.63;;;12.97;100.00
17260;BME280;8746;49.230;9.220;2023-05-10T01:04:59;99260.44;;;13.05;100.00
17260;BME280;8746;49.230;9.220;2023-05-10T01:07:25;99266.78;;;13.03;100.00
17260;BME280;8746;49.230;9.220;2023-05-10T01:09:50;99272.06;;;13.03;100.00
17260;BME280;8746;49.230;9.220;2023-05-10T01:12:15;99261.19;;;13.07;100.00
17260;BME280;8746;49.230;9.220;2023-05-10T01:14:41;99272.38;;;12.98;100.00
17260;BME280;8746;49.230;9.220;2023-05-10T01:17:07;99261.47;;;13.03;100.00
17260;BME280;8746;49.230;9.220;2023-05-10T01:19:35;99277.06;;;12.93;100.00
17260;BME280;8746;49.230;9.220;2023-05-10T01:22:04;99276.91;;;12.96;100.00
17260;BME280;8746;49.230;9.220;2023-05-10T01:33:43;99257.22;;;13.00;100.00
17260;BME280;8746;49.230;9.220;2023-05-10T01:36:26;99281.06;;;13.00;100.00
17260;BME280;8746;49.230;9.220;2023-05-10T01:39:25;99264.50;;;13.11;100.00
17260;BME280;8746;49.230;9.220;2023-05-10T01:42:02;99289.66;;;13.04;100.00
17260;BME280;8746;49.230;9.220;2023-05-10T01:44:33;99275.09;;;13.11;100.00
17260;BME280;8746;49.230;9.220;2023-05-10T01:47:11;99285.50;;;12.99;100.00
17260;BME280;8746;49.230;9.220;2023-05-10T01:49:44;99290.91;;;12.98;100.00
17260;BME280;8746;49.230;9.220;2023-05-10T01:52:12;99288.53;;;12.93;100.00
17260;BME280;8746;49.230;9.220;2023-05-10T01:54:44;99295.72;;;12.91;100.00
17260;BME280;8746;49.230;9.220;2023-05-10T01:57:13;99299.59;;;13.00;100.00
17260;BME280;8746;49.230;9.220;2023-05-10T01:59:43;99297.59;;;12.89;100.00
17260;BME280;8746;49.230;9.220;2023-05-10T02:02:11;99300.31;;;12.88;100.00
17260;BME280;8746;49.230;9.220;2023-05-10T02:04:38;99310.44;;;12.95;100.00
17260;BME280;8746;49.230;9.220;2023-05-10T02:07:05;99310.81;;;12.89;100.00
17260;BME280;8746;49.230;9.220;2023-05-10T02:09:33;99315.38;;;12.87;100.00
17260;BME280;8746;49.230;9.220;2023-05-10T02:12:01;99314.50;;;12.87;100.00
17260;BME280;8746;49.230;9.220;2023-05-10T02:14:29;99313.47;;;12.89;100.00
17260;BME280;8746;49.230;9.220;2023-05-10T02:16:56;99308.75;;;12.80;100.00
17260;BME280;8746;49.230;9.220;2023-05-10T02:19:24;99308.38;;;12.86;100.00
17260;BME280;8746;49.230;9.220;2023-05-10T02:21:51;99312.94;;;12.98;100.00
17260;BME280;8746;49.230;9.220;2023-05-10T02:24:17;99311.19;;;12.83;100.00
17260;BME280;8746;49.230;9.220;2023-05-10T02:26:45;99323.47;;;12.84;100.00
17260;BME280;8746;49.230;9.220;2023-05-10T02:29:13;99323.47;;;12.84;100.00
17260;BME280;8746;49.230;9.220;2023-05-10T02:31:39;99323.31;;;12.87;100.00
17260;BME280;8746;49.230;9.220;2023-05-10T02:34:08;99329.03;;;12.79;100.00
17260;BME280;8746;49.230;9.220;2023-05-10T02:36:36;99331.53;;;12.82;100.00
17260;BME280;8746;49.230;9.220;2023-05-10T02:39:03;99328.00;;;12.82;100.00
17260;BME280;8746;49.230;9.220;2023-05-10T02:41:31;99325.97;;;12.87;100.00
17260;BME280;8746;49.230;9.220;2023-05-10T02:44:01;99327.47;;;12.91;100.00
17260;BME280;8746;49.230;9.220;2023-05-10T02:46:28;99327.31;;;12.94;100.00
17260;BME280;8746;49.230;9.220;2023-05-10T02:48:53;99325.03;;;12.88;100.00
17260;BME280;8746;49.230;9.220;2023-05-10T02:51:20;99327.06;;;12.83;100.00
17260;BME280;8746;49.230;9.220;2023-05-10T02:53:49;99330.84;;;12.79;100.00
17260;BME280;8746;49.230;9.220;2023-05-10T02:56:23;99323.75;;;12.65;100.00
17260;BME280;8746;49.230;9.220;2023-05-10T02:58:50;99334.34;;;12.79;100.00
17260;BME280;8746;49.230;9.220;2023-05-10T03:01:15;99334.97;;;12.69;100.00
17260;BME280;8746;49.230;9.220;2023-05-10T03:03:41;99341.97;;;12.70;100.00
17260;BME280;8746;49.230;9.220;2023-05-10T03:06:06;99340.88;;;12.74;100.00
17260;BME280;8746;49.230;9.220;2023-05-10T03:08:32;99339.69;;;12.63;100.00
17260;BME280;8746;49.230;9.220;2023-05-10T03:14:12;99335.94;;;12.68;100.00
17260;BME280;8746;49.230;9.220;2023-05-10T03:16:48;99346.78;;;12.63;100.00
17260;BME280;8746;49.230;9.220;2023-05-10T03:19:36;99348.50;;;12.64;100.00
17260;BME280;8746;49.230;9.220;2023-05-10T03:22:08;99349.53;;;12.61;100.00
17260;BME280;8746;49.230;9.220;2023-05-10T03:24:35;99341.22;;;12.68;100.00
17260;BME280;8746;49.230;9.220;2023-05-10T03:27:02;99346.53;;;12.68;100.00
17260;BME280;8746;49.230;9.220;2023-05-10T03:29:30;99349.06;;;12.69;100.00
17260;BME280;8746;49.230;9.220;2023-05-10T03:31:58;99351.63;;;12.71;100.00
17260;BME280;8746;49.230;9.220;2023-05-10T03:34:25;99345.69;;;12.81;100.00
17260;BME280;8746;49.230;9.220;2023-05-10T03:36:50;99349.38;;;12.79;100.00
17260;BME280;8746;49.230;9.220;2023-05-10T03:39:16;99349.28;;;12.80;100.00
17260;BME280;8746;49.230;9.220;2023-05-10T03:41:41;99352.97;;;12.78;100.00
17260;BME280;8746;49.230;9.220;2023-05-10T03:44:07;99351.84;;;12.82;100.00
17260;BME280;8746;49.230;9.220;2023-05-10T03:46:32;99349.38;;;12.79;100.00
17260;BME280;8746;49.230;9.220;2023-05-10T03:48:57;99363.19;;;12.84;100.00
17260;BME280;8746;49.230;9.220;2023-05-10T03:51:23;99363.88;;;12.88;100.00
17260;BME280;8746;49.230;9.220;2023-05-10T03:53:50;99364.72;;;12.88;100.00
17260;BME280;8746;49.230;9.220;2023-05-10T03:56:15;99363.03;;;12.87;100.00
17260;BME280;8746;49.230;9.220;2023-05-10T03:58:41;99361.47;;;12.83;100.00
17260;BME280;8746;49.230;9.220;2023-05-10T04:01:06;99362.88;;;12.74;100.00
17260;BME280;8746;49.230;9.220;2023-05-10T04:03:31;99361.44;;;12.69;100.00
17260;BME280;8746;49.230;9.220;2023-05-10T04:06:01;99363.06;;;12.71;100.00
17260;BME280;8746;49.230;9.220;2023-05-10T04:08:26;99362.41;;;12.68;100.00
17260;BME280;8746;49.230;9.220;2023-05-10T04:10:52;99358.88;;;12.67;100.00
17260;BME280;8746;49.230;9.220;2023-05-10T04:13:17;99356.25;;;12.67;100.00
17260;BME280;8746;49.230;9.220;2023-05-10T04:15:42;99361.22;;;12.57;100.00
17260;BME280;8746;49.230;9.220;2023-05-10T04:18:08;99371.44;;;12.63;100.00
17260;BME280;8746;49.230;9.220;2023-05-10T04:20:34;99369.34;;;12.54;100.00
17260;BME280;8746;49.230;9.220;2023-05-10T04:22:59;99369.34;;;12.54;100.00
17260;BME280;8746;49.230;9.220;2023-05-10T04:25:24;99378.69;;;12.60;100.00
17260;BME280;8746;49.230;9.220;2023-05-10T04:27:49;99377.59;;;12.64;100.00
17260;BME280;8746;49.230;9.220;2023-05-10T04:30:15;99379.63;;;12.59;100.00
17260;BME280;8746;49.230;9.220;2023-05-10T04:32:40;99375.69;;;12.66;100.00
17260;BME280;8746;49.230;9.220;2023-05-10T04:35:06;99379.31;;;12.65;100.00
17260;BME280;8746;49.230;9.220;2023-05-10T04:37:31;99384.31;;;12.70;100.00
17260;BME280;8746;49.230;9.220;2023-05-10T04:39:56;99385.00;;;12.73;100.00
17260;BME280;8746;49.230;9.220;2023-05-10T04:42:22;99383.22;;;12.74;100.00
17260;BME280;8746;49.230;9.220;2023-05-10T04:44:47;99388.31;;;12.77;100.00
17260;BME280;8746;49.230;9.220;2023-05-10T04:47:12;99386.25;;;12.82;100.00
17260;BME280;8746;49.230;9.220;2023-05-10T04:49:38;99390.25;;;12.89;100.00
17260;BME280;8746;49.230;9.220;2023-05-10T04:52:03;99392.22;;;12.86;100.00
17260;BME280;8746;49.230;9.220;2023-05-10T04:54:29;99388.09;;;12.96;100.00
17260;BME280;8746;49.230;9.220;2023-05-10T04:56:54;99391.41;;;12.99;100.00
17260;BME280;8746;49.230;9.220;2023-05-10T04:59:20;99395.53;;;12.89;100.00
17260;BME280;8746;49.230;9.220;2023-05-10T05:01:45;99401.06;;;13.01;100.00
17260;BME280;8746;49.230;9.220;2023-05-10T05:04:10;99400.97;;;13.02;100.00
17260;BME280;8746;49.230;9.220;2023-05-10T05:06:36;99402.13;;;13.12;100.00
17260;BME280;8746;49.230;9.220;2023-05-10T05:09:01;99404.59;;;13.15;100.00
17260;BME280;8746;49.230;9.220;2023-05-10T05:11:27;99404.19;;;13.07;100.00
17260;BME280;8746;49.230;9.220;2023-05-10T05:13:52;99395.22;;;13.10;100.00
17260;BME280;8746;49.230;9.220;2023-05-10T05:16:18;99417.34;;;13.09;100.00
17260;BME280;8746;49.230;9.220;2023-05-10T05:18:43;99414.31;;;13.15;100.00
17260;BME280;8746;49.230;9.220;2023-05-10T05:21:15;99419.91;;;13.10;100.00
17260;BME280;8746;49.230;9.220;2023-05-10T05:23:41;99416.69;;;13.20;100.00
17260;BME280;8746;49.230;9.220;2023-05-10T05:26:06;99418.91;;;13.27;100.00
17260;BME280;8746;49.230;9.220;2023-05-10T05:28:32;99418.69;;;13.16;100.00
17260;BME280;8746;49.230;9.220;2023-05-10T05:30:59;99419.44;;;13.18;100.00
17260;BME280;8746;49.230;9.220;2023-05-10T05:33:25;99421.72;;;13.24;100.00
17260;BME280;8746;49.230;9.220;2023-05-10T05:35:50;99424.88;;;13.31;100.00
17260;BME280;8746;49.230;9.220;2023-05-10T05:38:16;99418.00;;;13.43;100.00
17260;BME280;8746;49.230;9.220;2023-05-10T05:40:42;99421.03;;;13.51;100.00
17260;BME280;8746;49.230;9.220;2023-05-10T05:43:07;99425.00;;;13.44;100.00
17260;BME280;8746;49.230;9.220;2023-05-10T05:45:33;99423.41;;;13.41;100.00
17260;BME280;8746;49.230;9.220;2023-05-10T05:47:58;99424.16;;;13.43;100.00
17260;BME280;8746;49.230;9.220;2023-05-10T05:50:23;99417.44;;;13.52;100.00
17260;BME280;8746;49.230;9.220;2023-05-10T05:52:49;99418.59;;;13.62;100.00
17260;BME280;8746;49.230;9.220;2023-05-10T05:55:14;99425.03;;;13.73;100.00
17260;BME280;8746;49.230;9.220;2023-05-10T05:57:39;99420.38;;;13.91;100.00
17260;BME280;8746;49.230;9.220;2023-05-10T06:00:05;99423.28;;;14.01;100.00
17260;BME280;8746;49.230;9.220;2023-05-10T06:02:31;99436.97;;;13.80;100.00
17260;BME280;8746;49.230;9.220;2023-05-10T06:04:56;99427.47;;;13.61;100.00
17260;BME280;8746;49.230;9.220;2023-05-10T06:07:22;99431.56;;;13.67;100.00
17260;BME280;8746;49.230;9.220;2023-05-10T06:09:47;99427.47;;;13.61;100.00
17260;BME280;8746;49.230;9.220;2023-05-10T06:12:13;99424.66;;;13.65;100.00
17260;BME280;8746;49.230;9.220;2023-05-10T06:14:38;99422.19;;;13.90;100.00
17260;BME280;8746;49.230;9.220;2023-05-10T06:17:03;99419.16;;;13.97;100.00
17260;BME280;8746;49.230;9.220;2023-05-10T06:19:30;99419.81;;;14.00;100.00
17260;BME280;8746;49.230;9.220;2023-05-10T06:21:55;99419.53;;;14.05;100.00
17260;BME280;8746;49.230;9.220;2023-05-10T06:24:21;99426.41;;;14.22;100.00
17260;BME280;8746;49.230;9.220;2023-05-10T06:26:46;99426.78;;;14.30;100.00
17260;BME280;8746;49.230;9.220;2023-05-10T06:29:12;99421.56;;;14.29;100.00
17260;BME280;8746;49.230;9.220;2023-05-10T06:31:37;99426.97;;;14.27;100.00
17260;BME280;8746;49.230;9.220;2023-05-10T06:34:02;99432.13;;;14.43;100.00
17260;BME280;8746;49.230;9.220;2023-05-10T06:36:28;99435.03;;;14.25;100.00
17260;BME280;8746;49.230;9.220;2023-05-10T06:38:53;99430.78;;;14.50;100.00
17260;BME280;8746;49.230;9.220;2023-05-10T06:41:18;99439.03;;;14.46;100.00
17260;BME280;8746;49.230;9.220;2023-05-10T06:43:44;99441.53;;;14.34;100.00
17260;BME280;8746;49.230;9.220;2023-05-10T06:46:09;99444.75;;;14.39;100.00
17260;BME280;8746;49.230;9.220;2023-05-10T06:48:35;99446.75;;;14.36;100.00
17260;BME280;8746;49.230;9.220;2023-05-10T06:51:00;99446.91;;;14.47;100.00
17260;BME280;8746;49.230;9.220;2023-05-10T06:53:26;99440.06;;;14.16;100.00
17260;BME280;8746;49.230;9.220;2023-05-10T06:55:51;99444.72;;;13.98;100.00
17260;BME280;8746;49.230;9.220;2023-05-10T06:58:17;99436.19;;;14.07;100.00
17260;BME280;8746;49.230;9.220;2023-05-10T07:00:42;99437.88;;;14.22;100.00
17260;BME280;8746;49.230;9.220;2023-05-10T07:03:09;99448.09;;;14.29;100.00
17260;BME280;8746;49.230;9.220;2023-05-10T07:05:35;99444.13;;;14.21;100.00
17260;BME280;8746;49.230;9.220;2023-05-10T07:08:00;99443.44;;;14.18;100.00
17260;BME280;8746;49.230;9.220;2023-05-10T07:10:26;99435.22;;;14.08;100.00
17260;BME280;8746;49.230;9.220;2023-05-10T07:12:51;99440.53;;;14.08;100.00
17260;BME280;8746;49.230;9.220;2023-05-10T07:15:17;99444.97;;;14.22;100.00
17260;BME280;8746;49.230;9.220;2023-05-10T07:17:42;99454.13;;;14.45;100.00
17260;BME280;8746;49.230;9.220;2023-05-10T07:20:08;99460.94;;;14.49;100.00
17260;BME280;8746;49.230;9.220;2023-05-10T07:22:33;99460.53;;;14.55;100.00
17260;BME280;8746;49.230;9.220;2023-05-10T07:24:59;99457.06;;;14.82;100.00
17260;BME280;8746;49.230;9.220;2023-05-10T07:27:24;99460.88;;;14.78;100.00
17260;BME280;8746;49.230;9.220;2023-05-10T07:29:50;99460.97;;;14.77;100.00
17260;BME280;8746;49.230;9.220;2023-05-10T07:32:15;99463.19;;;14.70;100.00
17260;BME280;8746;49.230;9.220;2023-05-10T07:34:41;99471.09;;;14.84;100.00
17260;BME280;8746;49.230;9.220;2023-05-10T07:37:06;99464.97;;;14.97;100.00
17260;BME280;8746;49.230;9.220;2023-05-10T07:39:32;99469.97;;;14.74;100.00
17260;BME280;8746;49.230;9.220;2023-05-10T07:41:57;99472.34;;;14.37;100.00
17260;BME280;8746;49.230;9.220;2023-05-10T07:44:23;99475.34;;;14.45;100.00
17260;BME280;8746;49.230;9.220;2023-05-10T07:46:49;99475.13;;;14.06;100.00
17260;BME280;8746;49.230;9.220;2023-05-10T07:49:14;99485.44;;;13.97;100.00
17260;BME280;8746;49.230;9.220;2023-05-10T07:51:40;99482.41;;;13.74;100.00
17260;BME280;8746;49.230;9.220;2023-05-10T07:54:06;99494.72;;;13.60;100.00
17260;BME280;8746;49.230;9.220;2023-05-10T07:56:32;99491.75;;;13.65;100.00
17260;BME280;8746;49.230;9.220;2023-05-10T07:59:02;99495.66;;;13.74;100.00
17260;BME280;8746;49.230;9.220;2023-05-10T08:01:33;99493.38;;;13.68;100.00
17260;BME280;8746;49.230;9.220;2023-05-10T08:03:59;99490.56;;;14.00;100.00
17260;BME280;8746;49.230;9.220;2023-05-10T08:06:25;99485.06;;;14.03;100.00
17260;BME280;8746;49.230;9.220;2023-05-10T08:08:52;99489.03;;;14.24;100.00
17260;BME280;8746;49.230;9.220;2023-05-10T08:11:19;99490.22;;;14.48;100.00
17260;BME280;8746;49.230;9.220;2023-05-10T08:13:46;99491.53;;;14.69;100.00
17260;BME280;8746;49.230;9.220;2023-05-10T08:16:11;99487.06;;;14.55;100.00
17260;BME280;8746;49.230;9.220;2023-05-10T08:18:37;99483.28;;;14.59;99.93
17260;BME280;8746;49.230;9.220;2023-05-10T08:21:02;99490.81;;;14.80;99.41
17260;BME280;8746;49.230;9.220;2023-05-10T08:23:28;99491.28;;;14.87;98.99
17260;BME280;8746;49.230;9.220;2023-05-10T08:25:53;99491.66;;;14.95;97.55
17260;BME280;8746;49.230;9.220;2023-05-10T08:28:19;99495.09;;;15.10;97.94
17260;BME280;8746;49.230;9.220;2023-05-10T08:30:44;99496.50;;;15.16;98.71
17260;BME280;8746;49.230;9.220;2023-05-10T08:33:09;99504.56;;;15.14;97.25
17260;BME280;8746;49.230;9.220;2023-05-10T08:35:35;99508.03;;;15.42;97.00
17260;BME280;8746;49.230;9.220;2023-05-10T08:38:00;99511.81;;;15.25;97.64
17260;BME280;8746;49.230;9.220;2023-05-10T08:40:26;99503.41;;;15.18;97.03
17260;BME280;8746;49.230;9.220;2023-05-10T08:43:12;99507.50;;;15.50;96.56
17260;BME280;8746;49.230;9.220;2023-05-10T08:45:41;99505.28;;;15.69;94.26
17260;BME280;8746;49.230;9.220;2023-05-10T08:48:09;99502.50;;;15.58;93.15
17260;BME280;8746;49.230;9.220;2023-05-10T08:50:36;99502.84;;;15.66;93.46
17260;BME280;8746;49.230;9.220;2023-05-10T08:53:05;99512.03;;;15.35;92.12
17260;BME280;8746;49.230;9.220;2023-05-10T08:55:32;99509.31;;;15.49;91.74
17260;BME280;8746;49.230;9.220;2023-05-10T08:57:59;99512.75;;;15.77;89.90
17260;BME280;8746;49.230;9.220;2023-05-10T09:00:24;99514.09;;;15.44;92.03
17260;BME280;8746;49.230;9.220;2023-05-10T09:02:50;99514.69;;;15.35;90.45
17260;BME280;8746;49.230;9.220;2023-05-10T09:05:16;99520.38;;;15.56;90.11
17260;BME280;8746;49.230;9.220;2023-05-10T09:07:42;99523.78;;;15.58;88.77
17260;BME280;8746;49.230;9.220;2023-05-10T09:10:08;99516.97;;;15.54;87.77
17260;BME280;8746;49.230;9.220;2023-05-10T09:12:35;99515.47;;;15.37;87.94
17260;BME280;8746;49.230;9.220;2023-05-10T09:15:01;99517.78;;;15.29;86.99
17260;BME280;8746;49.230;9.220;2023-05-10T09:17:27;99516.69;;;15.59;88.03
17260;BME280;8746;49.230;9.220;2023-05-10T09:19:58;99524.00;;;15.55;85.45
17260;BME280;8746;49.230;9.220;2023-05-10T09:22:24;99528.31;;;15.83;86.09
17260;BME280;8746;49.230;9.220;2023-05-10T09:27:32;99531.06;;;16.21;84.13
17260;BME280;8746;49.230;9.220;2023-05-10T09:29:57;99529.34;;;16.32;84.86
17260;BME280;8746;49.230;9.220;2023-05-10T09:32:39;99523.34;;;16.55;83.41
17260;BME280;8746;49.230;9.220;2023-05-10T09:37:39;99535.91;;;16.53;81.87
17260;BME280;8746;49.230;9.220;2023-05-10T09:40:07;99530.94;;;16.85;81.04
17260;BME280;8746;49.230;9.220;2023-05-10T09:42:34;99528.59;;;16.93;80.03
17260;BME280;8746;49.230;9.220;2023-05-10T09:45:06;99530.63;;;17.14;81.38
17260;BME280;8746;49.230;9.220;2023-05-10T09:47:35;99542.53;;;16.84;80.46
17260;BME280;8746;49.230;9.220;2023-05-10T09:50:02;99536.25;;;16.48;81.60
17260;BME280;8746;49.230;9.220;2023-05-10T09:53:14;99549.38;;;16.38;82.71
17260;BME280;8746;49.230;9.220;2023-05-10T09:55:15;99545.69;;;16.65;82.42
17260;BME280;8746;49.230;9.220;2023-05-10T09:57:41;99542.66;;;16.82;81.29
17260;BME280;8746;49.230;9.220;2023-05-10T10:00:07;99535.84;;;16.78;81.76
17260;BME280;8746;49.230;9.220;2023-05-10T10:02:33;99538.84;;;16.74;83.08
17260;BME280;8746;49.230;9.220;2023-05-10T10:05:01;99544.06;;;17.12;81.88
17260;BME280;8746;49.230;9.220;2023-05-10T10:07:28;99538.78;;;17.00;79.30
17260;BME280;8746;49.230;9.220;2023-05-10T10:09:54;99532.09;;;17.18;78.54
17260;BME280;8746;49.230;9.220;2023-05-10T10:12:20;99539.16;;;17.55;78.12
17260;BME280;8746;49.230;9.220;2023-05-10T10:14:46;99539.63;;;17.60;73.90
17260;BME280;8746;49.230;9.220;2023-05-10T10:17:13;99540.75;;;17.69;74.45
17260;BME280;8746;49.230;9.220;2023-05-10T10:19:38;99540.34;;;17.51;73.45
17260;BME280;8746;49.230;9.220;2023-05-10T10:22:05;99534.84;;;17.76;75.05
17260;BME280;8746;49.230;9.220;2023-05-10T10:24:30;99529.94;;;18.17;75.69
17260;BME280;8746;49.230;9.220;2023-05-10T10:27:01;99531.66;;;18.18;73.20
17260;BME280;8746;49.230;9.220;2023-05-10T10:32:33;99531.03;;;18.26;72.96
17260;BME280;8746;49.230;9.220;2023-05-10T10:35:02;99536.59;;;17.53;76.18
17260;BME280;8746;49.230;9.220;2023-05-10T10:37:44;99530.88;;;16.61;78.09
17260;BME280;8746;49.230;9.220;2023-05-10T10:42:56;99532.22;;;16.79;79.53
17260;BME280;8746;49.230;9.220;2023-05-10T10:45:22;99525.81;;;16.95;77.87
17260;BME280;8746;49.230;9.220;2023-05-10T10:47:48;99525.34;;;17.61;76.83
17260;BME280;8746;49.230;9.220;2023-05-10T10:50:15;99517.47;;;17.71;74.74
17260;BME280;8746;49.230;9.220;2023-05-10T10:52:44;99517.91;;;18.12;74.81
17260;BME280;8746;49.230;9.220;2023-05-10T10:55:15;99518.63;;;18.59;71.61
17260;BME280;8746;49.230;9.220;2023-05-10T11:00:24;99513.59;;;18.88;70.97
17260;BME280;8746;49.230;9.220;2023-05-10T11:03:03;99519.81;;;19.21;70.99
17260;BME280;8746;49.230;9.220;2023-05-10T11:07:58;99520.72;;;19.64;67.74
17260;BME280;8746;49.230;9.220;2023-05-10T11:10:26;99524.25;;;19.86;68.74
17260;BME280;8746;49.230;9.220;2023-05-10T11:15:19;99520.31;;;19.48;66.88
17260;BME280;8746;49.230;9.220;2023-05-10T11:17:45;99528.59;;;18.68;68.25
17260;BME280;8746;49.230;9.220;2023-05-10T11:20:17;99529.69;;;19.10;68.67
17260;BME280;8746;49.230;9.220;2023-05-10T11:22:52;99536.44;;;19.04;70.72
17260;BME280;8746;49.230;9.220;2023-05-10T11:25:17;99545.50;;;19.13;72.00
17260;BME280;8746;49.230;9.220;2023-05-10T11:27:43;99535.16;;;18.30;73.58
17260;BME280;8746;49.230;9.220;2023-05-10T11:30:11;99541.50;;;17.82;73.94
17260;BME280;8746;49.230;9.220;2023-05-10T11:32:38;99541.69;;;17.21;79.56
17260;BME280;8746;49.230;9.220;2023-05-10T11:35:11;99558.75;;;16.81;77.65
17260;BME280;8746;49.230;9.220;2023-05-10T11:37:38;99557.56;;;15.83;80.40
17260;BME280;8746;49.230;9.220;2023-05-10T11:40:07;99573.31;;;15.46;82.18
17260;BME280;8746;49.230;9.220;2023-05-10T11:42:36;99564.13;;;15.25;83.45
17260;BME280;8746;49.230;9.220;2023-05-10T11:45:02;99571.38;;;15.35;84.16
17260;BME280;8746;49.230;9.220;2023-05-10T11:47:27;99562.91;;;15.43;83.17
17260;BME280;8746;49.230;9.220;2023-05-10T11:49:53;99565.00;;;15.11;78.99
17260;BME280;8746;49.230;9.220;2023-05-10T11:52:18;99569.06;;;15.16;79.66
17260;BME280;8746;49.230;9.220;2023-05-10T11:54:53;99573.72;;;15.40;79.63
17260;BME280;8746;49.230;9.220;2023-05-10T11:57:20;99564.06;;;15.39;79.28
17260;BME280;8746;49.230;9.220;2023-05-10T11:59:46;99566.31;;;15.45;79.63
17260;BME280;8746;49.230;9.220;2023-05-10T12:02:13;99574.53;;;15.28;79.59
17260;BME280;8746;49.230;9.220;2023-05-10T12:04:39;99574.94;;;15.21;81.40
17260;BME280;8746;49.230;9.220;2023-05-10T12:07:05;99566.72;;;15.39;80.28
17260;BME280;8746;49.230;9.220;2023-05-10T12:09:30;99578.75;;;15.17;80.62
17260;BME280;8746;49.230;9.220;2023-05-10T12:11:56;99580.25;;;15.21;81.60
17260;BME280;8746;49.230;9.220;2023-05-10T12:14:24;99584.56;;;15.37;82.50
17260;BME280;8746;49.230;9.220;2023-05-10T12:16:50;99587.28;;;15.22;83.62
17260;BME280;8746;49.230;9.220;2023-05-10T12:19:18;99583.91;;;15.33;82.99
17260;BME280;8746;49.230;9.220;2023-05-10T12:21:45;99581.16;;;15.35;83.24
17260;BME280;8746;49.230;9.220;2023-05-10T12:24:10;99582.84;;;15.36;83.50
17260;BME280;8746;49.230;9.220;2023-05-10T12:26:36;99584.94;;;15.58;82.76
17260;BME280;8746;49.230;9.220;2023-05-10T12:29:15;99581.91;;;15.77;83.66
17260;BME280;8746;49.230;9.220;2023-05-10T12:31:57;99587.22;;;15.77;82.33
17260;BME280;8746;49.230;9.220;2023-05-10T12:34:35;99590.44;;;15.82;83.73
17260;BME280;8746;49.230;9.220;2023-05-10T12:37:04;99588.88;;;15.65;80.81
17260;BME280;8746;49.230;9.220;2023-05-10T12:39:43;99598.03;;;15.61;81.46
17260;BME280;8746;49.230;9.220;2023-05-10T12:42:09;99593.25;;;15.66;81.48
17260;BME280;8746;49.230;9.220;2023-05-10T12:44:34;99593.38;;;15.65;80.69
17260;BME280;8746;49.230;9.220;2023-05-10T12:46:59;99593.66;;;15.60;80.64
17260;BME280;8746;49.230;9.220;2023-05-10T12:49:25;99601.81;;;15.44;80.70
17260;BME280;8746;49.230;9.220;2023-05-10T12:51:50;99607.97;;;15.45;82.20
17260;BME280;8746;49.230;9.220;2023-05-10T12:54:15;99607.41;;;15.67;81.98
17260;BME280;8746;49.230;9.220;2023-05-10T12:56:41;99599.97;;;15.72;79.86
17260;BME280;8746;49.230;9.220;2023-05-10T12:59:07;99601.66;;;16.00;77.66
17260;BME280;8746;49.230;9.220;2023-05-10T13:01:33;99603.88;;;16.07;77.11
17260;BME280;8746;49.230;9.220;2023-05-10T13:03:58;99605.59;;;16.21;73.03
17260;BME280;8746;49.230;9.220;2023-05-10T13:06:25;99606.75;;;16.16;72.82
17260;BME280;8746;49.230;9.220;2023-05-10T13:08:50;99594.94;;;16.33;70.58
17260;BME280;8746;49.230;9.220;2023-05-10T13:11:17;99596.44;;;16.50;71.11
17260;BME280;8746;49.230;9.220;2023-05-10T13:13:42;99592.16;;;16.61;71.40
17260;BME280;8746;49.230;9.220;2023-05-10T13:16:07;99604.13;;;16.79;70.58
17260;BME280;8746;49.230;9.220;2023-05-10T13:18:33;99597.59;;;16.59;70.38
17260;BME280;8746;49.230;9.220;2023-05-10T13:20:58;99593.84;;;16.62;69.94
17260;BME280;8746;49.230;9.220;2023-05-10T13:23:24;99597.84;;;16.80;69.17
17260;BME280;8746;49.230;9.220;2023-05-10T13:25:49;99597.97;;;16.92;66.71
17260;BME280;8746;49.230;9.220;2023-05-10T13:28:14;99602.97;;;16.83;66.08
17260;BME280;8746;49.230;9.220;2023-05-10T13:30:40;99605.00;;;16.93;66.35
17260;BME280;8746;49.230;9.220;2023-05-10T13:33:05;99601.91;;;16.73;67.05
17260;BME280;8746;49.230;9.220;2023-05-10T13:35:31;99595.47;;;17.02;68.05